Time;durP1;ratioP1;P1;durP2;ratioP2;P2;SDS_P1;SDS_P2;PMS_P1;PMS_P2;Temp;Humidity;BMP_temperature;BMP_pressure;BME280_temperature;BME280_humidity;BME280_pressure;Samples;Min_cycle;Max_cycle;Signal;HPM_P1;HPM_P2
2023/08/31 00:02:09;;;;;;;5.53;4.78;;;;;;;15.08;76.22;97957.13;5002603;28;20053;-82
2023/08/31 00:04:34;;;;;;;6.45;5.75;;;;;;;15.17;75.67;97967.97;5001314;28;20033;-82
2023/08/31 00:07:00;;;;;;;6.18;5.03;;;;;;;14.80;77.47;97959.00;4968910;28;20033;-82
2023/08/31 00:09:25;;;;;;;7.97;4.55;;;;;;;14.98;77.02;97958.09;4987597;28;20042;-82
2023/08/31 00:11:51;;;;;;;6.22;4.78;;;;;;;14.84;76.92;97957.31;4991002;28;20584;-83
2023/08/31 00:14:17;;;;;;;10.98;7.25;;;;;;;14.66;78.08;97973.50;5002640;28;20088;-82
2023/08/31 00:16:43;;;;;;;6.47;4.78;;;;;;;14.97;77.18;97961.91;5006865;28;20113;-82
2023/08/31 00:19:08;;;;;;;8.95;5.47;;;;;;;14.90;76.81;97966.06;4989069;28;20026;-82
2023/08/31 00:21:34;;;;;;;4.63;4.22;;;;;;;15.10;76.39;97971.06;4973400;28;20487;-82
2023/08/31 00:23:59;;;;;;;9.93;6.60;;;;;;;15.01;76.55;97968.28;4985092;28;20454;-83
2023/08/31 00:26:25;;;;;;;10.95;7.47;;;;;;;14.88;76.26;97958.31;4994753;28;20355;-83
2023/08/31 00:28:50;;;;;;;6.82;5.07;;;;;;;14.94;76.46;97994.75;4987304;28;22140;-82
2023/08/31 00:31:16;;;;;;;9.30;5.60;;;;;;;15.00;76.43;97985.47;5008983;28;20033;-83
2023/08/31 00:33:41;;;;;;;6.45;4.60;;;;;;;14.96;75.96;97965.66;4989929;28;20038;-82
2023/08/31 00:36:07;;;;;;;6.05;4.45;;;;;;;14.93;76.29;97979.72;5005774;28;20034;-82
2023/08/31 00:38:33;;;;;;;6.47;5.43;;;;;;;15.08;76.19;97991.25;4989419;28;20493;-82
2023/08/31 00:40:59;;;;;;;6.72;4.75;;;;;;;14.85;77.10;97980.41;5006959;28;20037;-83
2023/08/31 00:43:24;;;;;;;9.70;7.45;;;;;;;14.49;77.65;97992.88;4987783;28;20049;-81
2023/08/31 00:45:56;;;;;;;6.78;4.80;;;;;;;14.54;77.64;97979.34;4986635;28;20048;-82
2023/08/31 00:48:22;;;;;;;7.10;4.18;;;;;;;14.69;77.57;97995.22;4972982;28;20032;-82
2023/08/31 00:50:48;;;;;;;8.13;5.45;;;;;;;14.51;77.88;97990.69;5007492;28;20482;-82
2023/08/31 00:53:15;;;;;;;6.78;5.35;;;;;;;14.52;78.11;98005.72;4988649;28;20541;-82
2023/08/31 00:55:40;;;;;;;12.57;7.47;;;;;;;14.35;77.70;98013.50;4972628;28;20036;-81
2023/08/31 00:58:07;;;;;;;8.02;6.20;;;;;;;14.37;78.20;98003.28;4988900;28;20034;-81
2023/08/31 01:00:44;;;;;;;5.97;5.05;;;;;;;14.40;77.33;97997.31;4985654;28;20681;-82
2023/08/31 01:03:26;;;;;;;13.18;6.35;;;;;;;14.75;76.43;98002.06;5004987;28;20030;-82
2023/08/31 01:06:12;;;;;;;8.05;5.10;;;;;;;14.74;76.70;98010.44;5003373;28;20976;-81
2023/08/31 01:09:08;;;;;;;6.43;4.80;;;;;;;14.20;78.72;98003.75;5006010;28;20018;-81
2023/08/31 01:11:59;;;;;;;8.30;5.65;;;;;;;14.02;78.95;97995.75;4984945;28;20497;-82
2023/08/31 01:14:31;;;;;;;6.15;5.22;;;;;;;14.70;75.86;97999.47;5002376;28;20598;-81
2023/08/31 01:16:59;;;;;;;9.55;5.53;;;;;;;14.59;75.73;98002.66;4983043;28;20036;-82
2023/08/31 01:19:48;;;;;;;7.70;5.57;;;;;;;14.64;75.65;97997.97;4988415;28;20034;-82
2023/08/31 01:22:21;;;;;;;9.82;6.75;;;;;;;14.34;77.01;97995.81;4992981;28;20124;-82
2023/08/31 01:24:47;;;;;;;10.25;4.93;;;;;;;14.76;75.33;97992.94;4988449;28;21406;-82
2023/08/31 01:27:13;;;;;;;9.85;5.82;;;;;;;14.31;75.29;97992.91;4969542;28;20041;-81
2023/08/31 01:29:38;;;;;;;8.43;5.68;;;;;;;14.29;76.95;98020.03;5000294;28;20038;-82
2023/08/31 01:32:07;;;;;;;5.53;4.90;;;;;;;14.31;77.14;98014.41;4970124;28;20483;-81
2023/08/31 01:34:34;;;;;;;12.55;7.32;;;;;;;13.88;77.58;98006.41;5001606;28;20033;-81
2023/08/31 01:37:09;;;;;;;10.38;5.80;;;;;;;13.88;78.37;98000.22;5002405;28;20022;-82
2023/08/31 01:39:44;;;;;;;10.35;5.20;;;;;;;14.58;75.67;98015.28;4978829;28;20040;-82
2023/08/31 01:42:13;;;;;;;6.63;5.13;;;;;;;14.55;75.03;98023.91;5003314;28;20038;-82
2023/08/31 01:44:39;;;;;;;11.20;6.20;;;;;;;14.37;76.47;98023.94;5006539;28;20025;-82
2023/08/31 01:47:06;;;;;;;10.20;6.32;;;;;;;13.60;78.97;98025.28;4988423;28;20071;-82
2023/08/31 01:49:39;;;;;;;11.73;5.20;;;;;;;13.88;78.39;98027.84;5009819;28;20181;-82
2023/08/31 01:52:05;;;;;;;7.72;5.38;;;;;;;14.11;77.06;98015.44;5004467;28;20413;-81
2023/08/31 01:54:31;;;;;;;9.45;5.82;;;;;;;14.56;75.28;98030.88;4988432;28;20038;-82
2023/08/31 01:56:56;;;;;;;5.00;4.47;;;;;;;14.55;75.10;98010.47;4990735;28;20037;-82
2023/08/31 01:59:22;;;;;;;7.65;6.15;;;;;;;14.15;76.80;98022.63;4991923;28;20038;-83
2023/08/31 02:01:47;;;;;;;8.65;6.78;;;;;;;14.29;75.59;98009.28;4987917;28;20025;-82
2023/08/31 02:04:12;;;;;;;9.10;5.78;;;;;;;14.42;75.84;98018.47;4956706;28;20394;-82
2023/08/31 02:06:38;;;;;;;8.80;6.25;;;;;;;14.41;75.62;98022.28;5007742;28;20034;-82
2023/08/31 02:09:03;;;;;;;14.80;7.63;;;;;;;14.45;75.90;98034.81;5008508;28;20041;-82
2023/08/31 02:11:29;;;;;;;10.13;6.53;;;;;;;14.54;75.37;98027.69;4988977;28;20026;-82
2023/08/31 02:13:54;;;;;;;13.35;6.68;;;;;;;14.52;75.14;98029.88;4972002;28;20530;-82
2023/08/31 02:16:19;;;;;;;8.55;6.07;;;;;;;14.48;75.63;98033.44;5005088;28;20096;-82
2023/08/31 02:18:45;;;;;;;12.20;6.60;;;;;;;14.50;75.15;98024.00;4994827;28;20148;-81
2023/08/31 02:21:10;;;;;;;12.52;6.45;;;;;;;14.48;75.81;98031.53;4991336;28;20040;-82
2023/08/31 02:23:35;;;;;;;11.05;6.72;;;;;;;14.49;75.20;98026.97;4974161;28;20184;-82
2023/08/31 02:26:00;;;;;;;8.23;6.95;;;;;;;14.33;75.63;98025.63;4965048;28;20035;-83
2023/08/31 02:28:26;;;;;;;7.50;6.13;;;;;;;14.64;74.83;98032.88;4988280;28;20033;-82
2023/08/31 02:30:59;;;;;;;10.43;6.80;;;;;;;14.50;75.37;98020.53;4988727;28;20030;-81
2023/08/31 02:33:25;;;;;;;7.25;6.13;;;;;;;14.42;75.43;98029.22;4989881;28;20034;-82
2023/08/31 02:35:50;;;;;;;10.73;6.15;;;;;;;14.42;75.50;98032.72;5003733;28;20036;-82
2023/08/31 02:38:15;;;;;;;6.40;5.68;;;;;;;14.52;75.15;98027.19;4975975;28;20034;-82
2023/08/31 02:40:41;;;;;;;10.60;6.40;;;;;;;14.72;74.54;98040.25;4975249;28;20450;-82
2023/08/31 02:43:07;;;;;;;10.45;6.32;;;;;;;14.52;74.75;98029.88;5003790;28;20030;-82
2023/08/31 02:45:32;;;;;;;7.97;5.97;;;;;;;14.58;75.15;98031.38;5000809;28;20511;-83
2023/08/31 02:47:58;;;;;;;8.55;5.82;;;;;;;14.47;74.80;98038.00;5006873;28;20390;-83
2023/08/31 02:50:23;;;;;;;9.23;5.57;;;;;;;14.41;74.81;98023.06;5010296;28;20155;-82
2023/08/31 02:52:48;;;;;;;9.70;6.53;;;;;;;14.61;74.53;98041.53;4975014;28;20026;-82
2023/08/31 02:55:14;;;;;;;9.90;5.57;;;;;;;14.45;75.00;98037.50;5006332;28;20033;-81
2023/08/31 02:57:39;;;;;;;12.75;6.80;;;;;;;14.57;74.80;98047.81;4987517;28;20139;-82
2023/08/31 03:00:08;;;;;;;8.85;6.60;;;;;;;14.52;74.67;98037.13;4968678;28;20042;-82
2023/08/31 03:02:34;;;;;;;10.23;6.25;;;;;;;14.38;75.17;98029.03;4986880;28;20039;-82
2023/08/31 03:05:01;;;;;;;8.30;6.45;;;;;;;14.52;74.66;98034.44;5005223;28;20497;-83
2023/08/31 03:07:26;;;;;;;12.98;6.95;;;;;;;14.53;74.53;98038.72;4972293;28;20065;-82
2023/08/31 03:09:52;;;;;;;12.88;7.13;;;;;;;14.40;74.70;98029.53;4954124;28;20072;-82
2023/08/31 03:12:17;;;;;;;10.65;7.07;;;;;;;14.42;74.82;98031.91;5006627;28;20056;-82
2023/08/31 03:14:42;;;;;;;11.57;7.15;;;;;;;14.45;74.68;98040.19;4973209;28;20612;-82
2023/08/31 03:17:08;;;;;;;11.10;6.47;;;;;;;14.57;74.77;98039.75;4985943;28;20548;-82
2023/08/31 03:19:33;;;;;;;7.57;6.15;;;;;;;14.63;73.88;98027.81;5006605;28;20171;-82
2023/08/31 03:21:58;;;;;;;7.75;6.43;;;;;;;14.71;73.88;98038.69;4959680;28;20060;-82
2023/08/31 03:24:24;;;;;;;8.90;5.75;;;;;;;14.73;73.64;98039.19;5005523;28;20030;-82
2023/08/31 03:26:49;;;;;;;10.32;6.32;;;;;;;14.65;74.01;98042.56;4973047;28;20401;-82
2023/08/31 03:29:14;;;;;;;9.50;6.88;;;;;;;14.60;74.36;98048.00;4971223;28;20117;-81
2023/08/31 03:31:40;;;;;;;7.50;6.32;;;;;;;14.61;74.26;98048.81;4989466;28;20029;-82
2023/08/31 03:34:05;;;;;;;11.23;6.13;;;;;;;14.65;74.05;98047.94;4971241;28;20505;-82
2023/08/31 03:36:31;;;;;;;10.98;7.55;;;;;;;14.46;74.47;98054.44;4983815;28;20103;-81
2023/08/31 03:38:56;;;;;;;8.60;5.78;;;;;;;14.46;74.46;98033.72;5005419;28;20417;-82
2023/08/31 03:41:21;;;;;;;7.13;6.05;;;;;;;14.54;74.51;98049.19;4988953;28;20026;-82
2023/08/31 03:43:47;;;;;;;9.45;5.95;;;;;;;14.61;74.12;98046.13;5004488;28;20033;-82
2023/08/31 03:46:12;;;;;;;11.48;8.25;;;;;;;14.13;74.83;98042.81;4969189;28;20045;-81
2023/08/31 03:48:37;;;;;;;12.80;8.75;;;;;;;14.19;75.47;98052.38;4974353;28;20113;-82
2023/08/31 03:51:03;;;;;;;10.13;5.60;;;;;;;14.27;75.05;98044.47;4971520;28;20026;-82
2023/08/31 03:53:29;;;;;;;7.97;7.18;;;;;;;14.00;75.77;98027.44;4981099;28;20034;-82
2023/08/31 03:55:54;;;;;;;9.93;7.30;;;;;;;14.41;75.17;98043.75;4978593;28;20482;-82
2023/08/31 03:58:19;;;;;;;10.73;5.93;;;;;;;14.40;74.76;98028.72;5000418;28;20040;-81
2023/08/31 04:00:49;;;;;;;8.30;7.03;;;;;;;14.46;74.75;98049.81;4966458;28;20650;-82
2023/08/31 04:03:14;;;;;;;11.77;7.15;;;;;;;14.55;74.03;98036.53;5000261;28;20030;-82
2023/08/31 04:05:40;;;;;;;8.05;6.15;;;;;;;14.50;73.90;98036.63;4967831;28;20033;-81
2023/08/31 04:08:05;;;;;;;9.10;6.03;;;;;;;14.45;74.67;98052.81;4984063;28;20044;-82
2023/08/31 04:10:31;;;;;;;9.48;6.88;;;;;;;14.38;74.95;98055.06;4987658;28;20129;-81
2023/08/31 04:12:58;;;;;;;11.07;6.97;;;;;;;14.36;75.09;98052.69;4990084;28;20041;-82
2023/08/31 04:15:24;;;;;;;15.95;7.15;;;;;;;14.39;75.12;98057.47;4983095;28;20037;-82
2023/08/31 04:17:49;;;;;;;8.50;6.47;;;;;;;14.29;75.36;98049.56;4972390;28;20046;-82
2023/08/31 04:20:15;;;;;;;8.82;6.93;;;;;;;14.32;75.26;98054.34;4986883;28;20042;-82
2023/08/31 04:22:40;;;;;;;10.50;7.03;;;;;;;14.18;75.77;98054.25;4989878;28;20569;-82
2023/08/31 04:25:07;;;;;;;13.85;7.47;;;;;;;14.22;75.44;98052.59;4976056;28;20045;-81
2023/08/31 04:27:32;;;;;;;12.18;7.25;;;;;;;14.27;75.32;98065.94;4972697;28;20032;-82
2023/08/31 04:30:02;;;;;;;10.68;8.13;;;;;;;14.26;75.58;98075.06;4989904;28;20025;-83
2023/08/31 04:32:27;;;;;;;12.05;8.90;;;;;;;14.12;76.04;98073.41;4998340;28;20022;-82
2023/08/31 04:34:53;;;;;;;12.85;8.00;;;;;;;14.28;76.10;98083.63;4984230;28;20449;-82
2023/08/31 04:37:18;;;;;;;9.52;7.53;;;;;;;14.17;76.48;98081.41;4988279;28;20028;-82
2023/08/31 04:39:44;;;;;;;10.25;8.00;;;;;;;14.17;76.80;98087.56;4955487;28;20066;-83
2023/08/31 04:42:09;;;;;;;12.35;8.13;;;;;;;14.24;76.54;98095.25;4985804;28;20033;-82
2023/08/31 04:44:35;;;;;;;10.88;7.97;;;;;;;14.37;75.54;98086.50;5004311;28;20025;-82
2023/08/31 04:47:00;;;;;;;11.20;8.75;;;;;;;14.17;76.88;98095.63;4970734;28;20037;-83
2023/08/31 04:49:26;;;;;;;10.15;7.75;;;;;;;14.15;76.73;98094.31;4987565;28;20030;-82
2023/08/31 04:51:52;;;;;;;11.15;8.02;;;;;;;14.34;76.36;98097.00;4953487;28;20060;-82
2023/08/31 04:54:18;;;;;;;9.50;7.28;;;;;;;14.35;75.91;98099.41;4965300;28;20034;-81
2023/08/31 04:56:43;;;;;;;15.40;10.07;;;;;;;14.26;76.12;98093.84;4976024;28;20037;-82
2023/08/31 04:59:09;;;;;;;8.75;6.63;;;;;;;14.20;76.32;98088.84;4997187;28;20072;-82
2023/08/31 05:01:34;;;;;;;9.98;8.52;;;;;;;14.09;76.22;98087.38;4984351;28;20108;-82
2023/08/31 05:04:00;;;;;;;9.63;8.38;;;;;;;14.06;76.97;98114.81;5003500;28;20037;-81
2023/08/31 05:06:25;;;;;;;9.07;7.70;;;;;;;14.07;77.03;98111.03;5009305;28;20083;-82
2023/08/31 05:08:51;;;;;;;12.85;8.02;;;;;;;14.21;76.38;98101.19;5008082;28;20055;-82
2023/08/31 05:11:16;;;;;;;7.50;6.80;;;;;;;14.29;76.06;98116.66;4974573;28;20034;-81
2023/08/31 05:13:44;;;;;;;9.82;7.63;;;;;;;14.14;76.95;98124.91;4987135;28;21767;-81
2023/08/31 05:16:10;;;;;;;8.93;7.75;;;;;;;14.25;76.78;98124.50;4967986;28;20073;-81
2023/08/31 05:18:36;;;;;;;12.55;7.40;;;;;;;14.31;75.80;98119.88;4987935;28;20136;-81
2023/08/31 05:21:03;;;;;;;9.45;8.10;;;;;;;14.07;77.03;98125.25;5003212;28;22281;-81
2023/08/31 05:23:29;;;;;;;10.98;8.48;;;;;;;14.12;77.03;98130.56;4988903;28;20037;-81
2023/08/31 05:25:56;;;;;;;10.93;8.50;;;;;;;14.10;76.75;98129.25;4972192;28;20031;-81
2023/08/31 05:28:22;;;;;;;11.68;7.72;;;;;;;13.90;77.71;98116.09;4986680;28;20096;-81
2023/08/31 05:30:49;;;;;;;14.13;7.35;;;;;;;14.04;76.79;98119.69;4968145;28;20034;-82
2023/08/31 05:33:15;;;;;;;8.60;6.63;;;;;;;14.08;76.92;98128.75;5001469;28;20025;-81
2023/08/31 05:35:40;;;;;;;7.35;6.45;;;;;;;14.01;76.79;98112.19;4980999;28;20413;-80
2023/08/31 05:38:05;;;;;;;10.30;7.03;;;;;;;14.17;76.65;98132.38;4989991;28;20041;-82
2023/08/31 05:40:31;;;;;;;8.20;7.40;;;;;;;14.16;76.72;98134.28;4972769;28;20058;-82
2023/08/31 05:42:56;;;;;;;13.15;8.50;;;;;;;14.10;76.67;98140.00;4988505;28;20505;-81
2023/08/31 05:45:21;;;;;;;10.95;9.32;;;;;;;13.84;77.90;98131.47;4970491;28;20551;-80
2023/08/31 05:47:47;;;;;;;8.75;7.07;;;;;;;13.92;77.67;98124.66;5003590;28;20590;-81
2023/08/31 05:50:12;;;;;;;10.35;7.88;;;;;;;13.86;78.10;98141.91;4984960;28;20026;-81
2023/08/31 05:52:38;;;;;;;10.57;9.10;;;;;;;13.84;78.19;98142.19;5005825;28;20112;-80
2023/08/31 05:55:03;;;;;;;10.65;7.53;;;;;;;13.94;77.67;98142.06;5002558;28;20033;-82
2023/08/31 05:57:29;;;;;;;11.43;9.80;;;;;;;13.83;78.16;98151.31;4981269;28;20065;-81
2023/08/31 05:59:54;;;;;;;11.98;6.70;;;;;;;13.92;78.37;98154.97;4986050;28;20502;-82
2023/08/31 06:02:19;;;;;;;12.20;8.27;;;;;;;13.89;78.42;98152.06;4989723;28;20029;-81
2023/08/31 06:04:45;;;;;;;12.13;8.00;;;;;;;14.02;77.79;98148.69;5002175;28;20038;-81
2023/08/31 06:07:10;;;;;;;11.68;8.52;;;;;;;13.91;78.48;98153.34;5008288;28;20128;-82
2023/08/31 06:09:35;;;;;;;11.95;8.43;;;;;;;13.88;78.72;98153.94;4992318;28;20545;-81
2023/08/31 06:12:01;;;;;;;10.38;8.65;;;;;;;14.03;78.28;98161.00;4987859;28;20076;-82
2023/08/31 06:14:26;;;;;;;12.90;8.63;;;;;;;13.92;78.16;98140.75;4991667;28;20394;-81
2023/08/31 06:16:52;;;;;;;11.23;8.60;;;;;;;14.01;78.40;98158.63;4989686;28;20116;-81
2023/08/31 06:19:17;;;;;;;15.15;9.38;;;;;;;13.97;78.59;98152.22;4988146;28;20060;-81
2023/08/31 06:21:43;;;;;;;13.13;8.68;;;;;;;14.06;78.29;98161.25;4973745;28;20069;-81
2023/08/31 06:24:12;;;;;;;13.68;9.13;;;;;;;13.90;79.05;98153.66;4991800;28;20026;-82
2023/08/31 06:26:38;;;;;;;13.05;8.77;;;;;;;14.08;78.33;98163.63;4978427;28;20045;-81
2023/08/31 06:29:03;;;;;;;11.63;8.27;;;;;;;14.24;77.99;98175.78;4981540;28;20050;-81
2023/08/31 06:31:29;;;;;;;14.88;12.25;;;;;;;14.04;78.53;98174.13;4999187;28;20037;-81
2023/08/31 06:33:54;;;;;;;11.35;8.55;;;;;;;14.11;78.31;98161.16;5011124;28;20050;-81
2023/08/31 06:36:20;;;;;;;13.68;9.10;;;;;;;14.24;77.99;98178.47;4994010;28;20030;-81
2023/08/31 06:38:45;;;;;;;17.10;12.70;;;;;;;13.95;80.13;98175.88;4977686;28;20113;-81
2023/08/31 06:41:11;;;;;;;12.93;9.48;;;;;;;14.06;78.87;98163.13;5010350;28;20057;-81
2023/08/31 06:43:36;;;;;;;13.05;9.45;;;;;;;14.32;77.89;98179.72;4976221;28;20092;-81
2023/08/31 06:46:01;;;;;;;15.05;10.25;;;;;;;14.27;78.43;98173.31;4992164;28;20029;-80
2023/08/31 06:48:27;;;;;;;12.70;9.43;;;;;;;14.20;78.44;98169.38;5009561;28;20120;-81
2023/08/31 06:50:52;;;;;;;13.35;9.35;;;;;;;14.43;77.76;98175.81;4975695;28;20046;-81
2023/08/31 06:53:17;;;;;;;10.05;7.72;;;;;;;14.39;77.23;98174.81;4989810;28;20061;-81
2023/08/31 06:55:43;;;;;;;10.30;8.38;;;;;;;14.42;77.30;98195.69;4957498;28;20393;-81
2023/08/31 06:58:09;;;;;;;10.57;9.48;;;;;;;14.34;77.57;98182.91;4987173;28;20505;-81
2023/08/31 07:00:35;;;;;;;12.30;8.05;;;;;;;14.36;78.06;98191.47;4987437;28;20094;-81
2023/08/31 07:03:00;;;;;;;9.88;8.82;;;;;;;14.30;78.08;98181.91;4975999;28;20121;-80
2023/08/31 07:05:27;;;;;;;11.65;8.02;;;;;;;14.24;78.16;98184.63;4953488;28;20030;-81
2023/08/31 07:07:54;;;;;;;14.73;10.35;;;;;;;14.28;78.79;98195.59;4988614;28;20389;-81
2023/08/31 07:10:20;;;;;;;11.80;9.38;;;;;;;14.32;78.31;98193.97;5006983;28;20818;-81
2023/08/31 07:12:45;;;;;;;13.90;9.88;;;;;;;14.15;78.90;98197.06;5010888;28;20040;-80
2023/08/31 07:15:10;;;;;;;10.95;8.13;;;;;;;14.44;78.07;98206.97;4971870;28;20984;-81
2023/08/31 07:17:36;;;;;;;12.52;8.70;;;;;;;14.46;77.61;98194.06;5006150;28;20033;-81
2023/08/31 07:20:05;;;;;;;11.68;8.85;;;;;;;14.41;78.32;98200.28;4991567;28;20108;-81
2023/08/31 07:22:32;;;;;;;11.93;7.68;;;;;;;14.61;77.42;98209.97;4991785;28;20038;-81
2023/08/31 07:24:57;;;;;;;10.38;7.22;;;;;;;14.70;77.47;98209.00;4977330;28;20041;-81
2023/08/31 07:27:23;;;;;;;9.10;6.43;;;;;;;14.73;76.59;98208.44;4976240;28;20085;-80
2023/08/31 07:29:48;;;;;;;10.05;7.50;;;;;;;14.71;76.67;98202.53;4963838;28;20098;-81
2023/08/31 07:32:13;;;;;;;10.60;7.35;;;;;;;14.58;77.17;98187.16;5008179;28;20034;-81
2023/08/31 07:34:39;;;;;;;10.13;8.55;;;;;;;14.55;77.90;98185.03;4972753;28;20108;-80
2023/08/31 07:37:04;;;;;;;8.43;7.10;;;;;;;14.76;76.64;98194.44;4989433;28;20033;-81
2023/08/31 07:39:29;;;;;;;7.55;6.13;;;;;;;14.78;77.02;98200.31;4989152;28;20046;-80
2023/08/31 07:41:55;;;;;;;12.27;6.60;;;;;;;15.00;75.88;98205.84;4977070;28;20370;-80
2023/08/31 07:44:21;;;;;;;7.90;7.00;;;;;;;14.87;76.33;98195.06;4958750;28;20029;-80
2023/08/31 07:46:46;;;;;;;7.72;6.07;;;;;;;14.98;75.59;98196.50;4986737;28;20080;-81
2023/08/31 07:49:12;;;;;;;8.70;5.70;;;;;;;14.95;76.17;98205.94;5008429;28;20421;-81
2023/08/31 07:51:37;;;;;;;10.20;6.18;;;;;;;14.88;76.61;98218.94;4991096;28;20121;-81
2023/08/31 07:54:05;;;;;;;6.35;5.50;;;;;;;14.90;76.40;98210.59;4971478;28;20027;-80
2023/08/31 07:56:30;;;;;;;7.93;6.60;;;;;;;14.91;76.25;98215.69;4974675;28;20033;-81
2023/08/31 07:58:56;;;;;;;10.65;5.93;;;;;;;15.01;75.06;98237.03;4980176;28;20049;-80
2023/08/31 08:01:21;;;;;;;6.85;5.60;;;;;;;14.89;75.27;98228.63;5002097;28;20136;-81
2023/08/31 08:03:47;;;;;;;6.25;5.20;;;;;;;14.96;75.07;98217.50;4976075;28;20030;-81
2023/08/31 08:06:12;;;;;;;9.75;5.03;;;;;;;15.05;74.75;98218.41;4992125;28;20770;-81
2023/08/31 08:08:38;;;;;;;7.65;5.50;;;;;;;15.13;74.19;98222.34;4996069;28;20038;-81
2023/08/31 08:11:04;;;;;;;5.95;4.90;;;;;;;14.97;74.94;98224.47;4959184;28;20021;-81
2023/08/31 08:13:31;;;;;;;9.25;5.47;;;;;;;15.17;74.58;98237.59;4990303;28;20058;-81
2023/08/31 08:15:56;;;;;;;6.20;5.20;;;;;;;15.15;74.89;98244.34;5008973;28;20277;-81
2023/08/31 08:18:22;;;;;;;4.93;4.53;;;;;;;15.10;74.58;98229.09;4992323;28;20470;-81
2023/08/31 08:20:49;;;;;;;8.63;5.30;;;;;;;15.14;74.66;98224.72;4987922;28;20111;-81
2023/08/31 08:23:14;;;;;;;5.95;4.68;;;;;;;15.30;73.98;98227.97;5004979;28;20410;-81
2023/08/31 08:25:40;;;;;;;6.80;4.35;;;;;;;15.30;73.90;98239.53;4976208;28;20038;-81
2023/08/31 08:28:05;;;;;;;4.95;4.53;;;;;;;15.45;73.87;98246.59;4966453;28;20032;-81
2023/08/31 08:30:31;;;;;;;5.20;4.47;;;;;;;15.46;74.00;98242.81;5010703;28;20030;-81
2023/08/31 08:32:57;;;;;;;5.60;3.80;;;;;;;15.50;73.08;98247.31;4991935;28;20405;-81
2023/08/31 08:35:22;;;;;;;3.92;3.58;;;;;;;15.55;73.61;98241.06;4993899;28;20049;-81
2023/08/31 08:37:48;;;;;;;6.07;4.20;;;;;;;15.67;72.87;98250.25;4974769;28;20030;-81
2023/08/31 08:40:13;;;;;;;7.78;3.85;;;;;;;15.59;72.59;98232.09;4991283;28;20021;-81
2023/08/31 08:42:41;;;;;;;5.72;3.47;;;;;;;15.72;72.80;98246.66;5008318;28;20030;-81
2023/08/31 08:45:16;;;;;;;4.78;3.60;;;;;;;15.73;72.16;98240.19;5007588;28;20037;-81
2023/08/31 08:47:46;;;;;;;5.35;2.95;;;;;;;15.77;72.30;98236.59;5009963;28;20030;-81
2023/08/31 08:50:12;;;;;;;3.67;3.35;;;;;;;15.84;71.87;98238.91;5008330;28;20111;-81
2023/08/31 08:52:41;;;;;;;3.30;3.00;;;;;;;15.89;72.39;98241.50;4981124;28;20038;-81
2023/08/31 08:55:08;;;;;;;3.10;2.78;;;;;;;15.88;71.72;98239.91;4994346;28;20918;-81
2023/08/31 08:57:34;;;;;;;4.53;2.90;;;;;;;15.98;71.19;98242.41;4993222;28;20030;-81
2023/08/31 09:00:00;;;;;;;2.78;2.58;;;;;;;15.81;72.11;98239.50;5010912;28;20501;-81
2023/08/31 09:02:25;;;;;;;3.08;2.58;;;;;;;15.78;72.23;98253.56;5009847;28;20105;-81
2023/08/31 09:04:54;;;;;;;4.53;2.88;;;;;;;15.81;71.13;98238.72;4991903;28;20091;-81
2023/08/31 09:07:21;;;;;;;2.88;2.65;;;;;;;15.78;71.14;98248.16;4976779;28;20034;-81
2023/08/31 09:09:51;;;;;;;3.83;2.33;;;;;;;15.89;70.86;98224.56;5007411;28;20034;-81
2023/08/31 09:12:17;;;;;;;3.15;2.58;;;;;;;15.95;69.70;98228.75;4974159;28;20426;-81
2023/08/31 09:14:43;;;;;;;2.17;1.98;;;;;;;15.96;70.00;98238.44;4977175;28;20041;-81
2023/08/31 09:17:08;;;;;;;5.53;2.58;;;;;;;15.91;69.97;98215.09;4975416;28;20038;-81
2023/08/31 09:19:34;;;;;;;4.35;2.50;;;;;;;16.07;69.34;98235.25;4989362;28;20057;-81
2023/08/31 09:21:59;;;;;;;2.70;2.20;;;;;;;16.16;69.55;98228.03;5010733;28;20038;-81
2023/08/31 09:24:25;;;;;;;4.40;2.50;;;;;;;16.14;68.64;98218.69;4993172;28;20088;-81
2023/08/31 09:26:58;;;;;;;3.65;2.40;;;;;;;16.22;69.38;98226.06;4991338;28;20576;-81
2023/08/31 09:29:23;;;;;;;5.30;2.65;;;;;;;16.18;68.85;98215.13;5010660;28;20127;-81
2023/08/31 09:31:49;;;;;;;5.32;1.90;;;;;;;16.34;68.35;98242.50;4988820;28;20049;-82
2023/08/31 09:34:16;;;;;;;3.35;1.80;;;;;;;16.43;68.07;98246.09;4973337;28;20034;-81
2023/08/31 09:36:41;;;;;;;2.70;2.00;;;;;;;16.30;67.52;98233.44;4976563;28;20025;-82
2023/08/31 09:39:09;;;;;;;4.43;2.30;;;;;;;16.38;67.82;98228.16;5008103;28;21768;-81
2023/08/31 09:41:34;;;;;;;2.53;2.17;;;;;;;16.56;67.50;98236.44;4974880;28;20053;-82
2023/08/31 09:44:17;;;;;;;4.22;2.60;;;;;;;16.49;66.77;98237.59;4996065;28;20478;-81
2023/08/31 09:46:44;;;;;;;3.13;2.17;;;;;;;16.57;67.58;98241.53;4979445;28;20034;-81
2023/08/31 09:49:13;;;;;;;4.13;2.17;;;;;;;16.52;67.39;98235.44;5013165;28;20037;-81
2023/08/31 09:51:41;;;;;;;2.38;2.05;;;;;;;16.64;65.52;98233.84;5004964;28;20111;-81
2023/08/31 09:54:09;;;;;;;3.17;2.17;;;;;;;16.62;65.81;98217.16;4995324;28;20106;-81
2023/08/31 09:56:36;;;;;;;2.90;2.08;;;;;;;16.90;64.63;98220.59;5011512;28;20026;-82
2023/08/31 09:59:02;;;;;;;3.10;2.05;;;;;;;17.06;65.16;98238.81;4993904;28;20036;-82
2023/08/31 10:01:28;;;;;;;2.60;2.03;;;;;;;17.00;65.10;98223.06;5010561;28;20485;-81
2023/08/31 10:03:53;;;;;;;6.30;2.60;;;;;;;17.10;65.21;98233.63;4995000;28;20037;-81
2023/08/31 10:06:21;;;;;;;3.60;2.08;;;;;;;16.99;65.56;98221.47;4992465;28;20120;-81
2023/08/31 10:08:47;;;;;;;2.17;1.98;;;;;;;17.12;64.57;98220.63;4978992;28;20414;-81
2023/08/31 10:11:14;;;;;;;3.25;1.83;;;;;;;17.01;64.92;98219.28;4995118;28;20038;-81
2023/08/31 10:13:41;;;;;;;3.20;2.30;;;;;;;17.11;63.81;98229.81;4993315;28;20032;-81
2023/08/31 10:16:06;;;;;;;2.95;2.28;;;;;;;17.10;64.10;98214.75;4982039;28;20039;-81
2023/08/31 10:18:34;;;;;;;4.40;2.40;;;;;;;17.14;63.51;98224.63;4990721;28;20036;-81
2023/08/31 10:21:02;;;;;;;3.83;1.88;;;;;;;17.23;62.60;98217.34;4993040;28;20050;-82
2023/08/31 10:23:28;;;;;;;2.25;1.80;;;;;;;17.31;62.68;98218.53;4989944;28;20029;-81
2023/08/31 10:25:53;;;;;;;3.58;2.15;;;;;;;17.48;63.19;98218.66;5009999;28;20022;-82
2023/08/31 10:28:30;;;;;;;2.65;2.33;;;;;;;17.70;62.20;98225.94;5006577;28;20025;-81
2023/08/31 10:31:07;;;;;;;2.08;1.88;;;;;;;17.72;62.14;98235.34;4992573;28;20038;-82
2023/08/31 10:33:34;;;;;;;3.08;2.20;;;;;;;17.77;62.35;98226.31;5010642;28;20343;-82
2023/08/31 10:36:01;;;;;;;4.07;1.92;;;;;;;17.76;62.68;98246.28;5011098;28;20025;-81
2023/08/31 10:38:31;;;;;;;4.82;1.80;;;;;;;17.71;60.79;98214.06;4974118;28;20044;-82
2023/08/31 10:41:23;;;;;;;2.88;1.70;;;;;;;17.89;60.75;98226.50;4979276;28;20486;-82
2023/08/31 10:43:51;;;;;;;4.68;1.40;;;;;;;17.98;60.87;98233.56;4975889;28;20034;-81
2023/08/31 10:46:28;;;;;;;2.03;1.90;;;;;;;17.95;59.97;98233.41;4992723;28;20032;-81
2023/08/31 10:49:11;;;;;;;3.90;1.52;;;;;;;17.87;60.93;98234.94;4990808;28;20033;-82
2023/08/31 10:51:42;;;;;;;2.20;1.58;;;;;;;17.74;61.02;98233.13;5009173;28;20029;-82
2023/08/31 10:54:25;;;;;;;1.98;1.88;;;;;;;17.57;61.42;98229.53;4994214;28;20172;-79
2023/08/31 10:56:56;;;;;;;2.80;1.95;;;;;;;17.55;62.02;98237.94;5007257;28;20025;-79
2023/08/31 10:59:23;;;;;;;4.53;2.33;;;;;;;17.44;62.31;98243.84;5011182;28;20078;-79
2023/08/31 11:01:55;;;;;;;5.07;2.40;;;;;;;17.24;62.38;98255.94;5009599;28;20038;-80
2023/08/31 11:04:22;;;;;;;2.67;1.70;;;;;;;17.05;63.07;98249.91;4991328;28;20113;-80
2023/08/31 11:06:47;;;;;;;2.75;2.10;;;;;;;16.80;63.91;98255.84;4994475;28;20040;-79
2023/08/31 11:09:20;;;;;;;3.83;2.05;;;;;;;16.47;65.82;98269.44;4990631;28;20033;-79
2023/08/31 11:11:47;;;;;;;2.20;1.98;;;;;;;16.33;67.25;98294.78;4994046;28;20552;-79
2023/08/31 11:14:12;;;;;;;3.50;1.98;;;;;;;16.06;68.58;98276.72;4973893;28;20030;-80
2023/08/31 11:16:38;;;;;;;2.55;2.30;;;;;;;16.17;68.95;98305.06;4993514;28;20117;-81
2023/08/31 11:19:04;;;;;;;2.78;2.15;;;;;;;15.91;69.89;98301.22;4994833;28;20034;-81
2023/08/31 11:21:31;;;;;;;2.53;1.80;;;;;;;15.66;70.41;98291.69;4978775;28;20062;-79
2023/08/31 11:23:58;;;;;;;2.53;2.05;;;;;;;15.69;70.87;98296.47;4978622;28;20045;-79
2023/08/31 11:26:25;;;;;;;3.45;2.05;;;;;;;15.35;72.07;98297.81;5010857;28;20026;-80
2023/08/31 11:28:51;;;;;;;4.30;1.58;;;;;;;15.54;72.17;98302.13;4978351;28;20034;-80